createdAt,value
2022-12-31T00:01:37.338Z,12.38
2022-12-31T00:04:03.870Z,16.00
2022-12-31T00:06:32.635Z,17.48
2022-12-31T00:09:01.001Z,16.30
2022-12-31T00:11:29.103Z,16.52
2022-12-31T00:13:57.069Z,21.02
2022-12-31T00:16:30.394Z,26.40
2022-12-31T00:18:59.290Z,24.05
2022-12-31T00:21:28.984Z,28.38
2022-12-31T00:23:56.120Z,25.33
2022-12-31T00:26:25.392Z,20.25
2022-12-31T00:28:53.754Z,18.38
2022-12-31T00:31:32.634Z,19.55
2022-12-31T00:33:59.814Z,16.83
2022-12-31T00:36:35.484Z,15.30
2022-12-31T00:39:04.099Z,33.58
2022-12-31T00:41:31.503Z,30.70
2022-12-31T00:43:58.317Z,29.13
2022-12-31T00:46:25.263Z,24.40
2022-12-31T00:48:52.085Z,22.58
2022-12-31T00:51:21.292Z,20.60
2022-12-31T00:53:47.667Z,27.88
2022-12-31T00:56:20.967Z,24.20
2022-12-31T00:58:48.540Z,24.92
2022-12-31T01:01:37.248Z,22.65
2022-12-31T01:04:08.796Z,25.38
2022-12-31T01:06:35.441Z,29.48
2022-12-31T01:09:02.284Z,25.85
2022-12-31T01:11:28.699Z,22.58
2022-12-31T01:13:57.789Z,20.38
2022-12-31T01:16:27.214Z,21.35
2022-12-31T01:18:54.035Z,21.67
2022-12-31T01:21:21.963Z,18.23
2022-12-31T01:23:48.619Z,14.27
2022-12-31T01:26:16.778Z,18.00
2022-12-31T01:28:43.210Z,13.55
2022-12-31T01:31:15.109Z,19.88
2022-12-31T01:33:43.497Z,21.92
2022-12-31T01:36:21.712Z,15.20
2022-12-31T01:38:51.962Z,13.23
2022-12-31T01:41:21.539Z,16.13
2022-12-31T01:43:50.871Z,16.63
2022-12-31T01:46:25.060Z,12.48
2022-12-31T01:48:55.823Z,17.90
2022-12-31T01:51:23.852Z,18.33
2022-12-31T01:53:50.523Z,21.52
2022-12-31T01:56:21.610Z,15.70
2022-12-31T01:58:51.930Z,18.33
2022-12-31T02:01:37.926Z,19.33
2022-12-31T02:04:08.800Z,15.13
2022-12-31T02:06:41.492Z,15.35
2022-12-31T02:09:08.956Z,20.48
2022-12-31T02:11:35.864Z,15.77
2022-12-31T02:14:06.394Z,19.17
2022-12-31T02:16:57.504Z,16.08
2022-12-31T02:19:57.794Z,17.08
2022-12-31T02:23:01.502Z,17.40
2022-12-31T02:25:46.401Z,13.80
2022-12-31T02:28:30.593Z,12.85
2022-12-31T02:31:16.857Z,18.92
2022-12-31T02:34:13.471Z,17.63
2022-12-31T02:36:43.551Z,18.02
2022-12-31T02:39:12.510Z,18.45
2022-12-31T02:41:39.012Z,13.95
2022-12-31T02:44:41.744Z,15.23
2022-12-31T02:47:08.147Z,18.35
2022-12-31T02:49:43.488Z,19.98
2022-12-31T02:52:21.186Z,23.15
2022-12-31T02:55:14.831Z,23.85
2022-12-31T02:57:53.494Z,25.77
2022-12-31T03:00:20.310Z,24.90
2022-12-31T03:02:49.817Z,21.48
2022-12-31T03:05:19.249Z,19.08
2022-12-31T03:07:46.360Z,12.05
2022-12-31T03:10:13.049Z,20.70
2022-12-31T03:12:40.985Z,13.88
2022-12-31T03:15:09.557Z,15.50
2022-12-31T03:17:35.967Z,15.25
2022-12-31T03:20:02.452Z,15.40
2022-12-31T03:22:30.057Z,16.38
2022-12-31T03:25:00.192Z,12.05
2022-12-31T03:27:26.600Z,16.40
2022-12-31T03:29:53.078Z,18.83
2022-12-31T03:32:19.472Z,16.35
2022-12-31T03:34:45.768Z,14.20
2022-12-31T03:37:12.074Z,23.20
2022-12-31T03:39:38.567Z,22.80
2022-12-31T03:42:04.993Z,18.58
2022-12-31T03:44:31.383Z,19.02
2022-12-31T03:46:57.724Z,18.75
2022-12-31T03:49:24.028Z,21.05
2022-12-31T03:51:50.393Z,20.50
2022-12-31T03:54:16.900Z,21.58
2022-12-31T03:56:43.286Z,17.33
2022-12-31T03:59:09.752Z,17.08
2022-12-31T04:01:36.168Z,20.10
2022-12-31T04:04:02.775Z,20.73
2022-12-31T04:06:29.078Z,16.17
2022-12-31T04:08:55.479Z,20.27
2022-12-31T04:11:21.879Z,20.17
2022-12-31T04:13:48.234Z,13.70
2022-12-31T04:16:14.680Z,17.48
2022-12-31T04:18:41.060Z,12.55
2022-12-31T04:21:07.461Z,15.07
2022-12-31T04:23:33.829Z,17.17
2022-12-31T04:26:00.227Z,13.75
2022-12-31T04:28:26.599Z,18.30
2022-12-31T04:30:53.010Z,10.40
2022-12-31T04:33:19.431Z,14.20
2022-12-31T04:35:45.763Z,15.88
2022-12-31T04:38:12.181Z,12.77
2022-12-31T04:40:38.624Z,13.35
2022-12-31T04:43:04.924Z,13.77
2022-12-31T04:45:31.425Z,13.27
2022-12-31T04:47:57.822Z,13.27
2022-12-31T04:50:24.132Z,15.07
2022-12-31T04:52:50.502Z,8.73
2022-12-31T04:55:16.912Z,17.63
2022-12-31T04:57:43.217Z,13.00
2022-12-31T05:00:10.310Z,11.00
2022-12-31T05:02:36.777Z,13.57
2022-12-31T05:05:03.280Z,12.98
2022-12-31T05:07:29.697Z,12.18
2022-12-31T05:09:56.156Z,11.50
2022-12-31T05:12:22.521Z,16.05
2022-12-31T05:14:48.895Z,13.57
2022-12-31T05:17:15.288Z,15.57
2022-12-31T05:19:41.691Z,15.45
2022-12-31T05:22:08.096Z,15.48
2022-12-31T05:24:34.556Z,14.55
2022-12-31T05:27:00.950Z,16.80
2022-12-31T05:29:27.245Z,13.52
2022-12-31T05:31:53.566Z,14.88
2022-12-31T05:34:19.997Z,15.32
2022-12-31T05:36:46.324Z,16.25
2022-12-31T05:39:12.672Z,17.13
2022-12-31T05:41:39.045Z,17.52
2022-12-31T05:44:05.444Z,19.17
2022-12-31T05:46:31.791Z,16.92
2022-12-31T05:48:58.190Z,17.63
2022-12-31T05:51:24.567Z,17.98
2022-12-31T05:53:50.969Z,22.80
2022-12-31T05:56:17.271Z,22.92
2022-12-31T05:58:43.651Z,20.65
2022-12-31T06:01:10.092Z,24.50
2022-12-31T06:03:36.564Z,22.92
2022-12-31T06:06:02.970Z,25.17
2022-12-31T06:08:29.337Z,27.42
2022-12-31T06:10:55.714Z,26.52
2022-12-31T06:13:22.155Z,24.20
2022-12-31T06:15:48.581Z,28.05
2022-12-31T06:18:15.051Z,25.75
2022-12-31T06:20:41.601Z,26.80
2022-12-31T06:23:07.965Z,22.88
2022-12-31T06:25:35.496Z,23.80
2022-12-31T06:28:01.891Z,21.20
2022-12-31T06:30:28.289Z,23.05
2022-12-31T06:32:55.544Z,18.65
2022-12-31T06:35:22.356Z,16.95
2022-12-31T06:37:48.670Z,15.52
2022-12-31T06:40:15.115Z,14.70
2022-12-31T06:42:41.503Z,12.90
2022-12-31T06:45:08.439Z,10.40
2022-12-31T06:47:34.855Z,13.20
2022-12-31T06:50:01.289Z,13.40
2022-12-31T06:52:27.758Z,13.50
2022-12-31T06:54:54.508Z,17.25
2022-12-31T06:57:21.038Z,19.13
2022-12-31T06:59:47.649Z,21.02
2022-12-31T07:02:23.011Z,19.92
2022-12-31T07:05:24.572Z,19.33
2022-12-31T07:08:08.789Z,22.95
2022-12-31T07:10:45.991Z,26.17
2022-12-31T07:13:39.604Z,23.30
2022-12-31T07:16:21.965Z,22.23
2022-12-31T07:18:56.312Z,26.25
2022-12-31T07:21:34.221Z,19.40
2022-12-31T07:24:00.950Z,16.13
2022-12-31T07:26:49.932Z,14.77
2022-12-31T07:29:40.889Z,13.90
2022-12-31T07:32:33.029Z,11.10
2022-12-31T07:35:35.258Z,10.57
2022-12-31T07:38:13.555Z,10.55
2022-12-31T07:40:59.819Z,9.15
2022-12-31T07:43:42.855Z,11.25
2022-12-31T07:46:26.747Z,7.90
2022-12-31T07:48:53.496Z,8.20
2022-12-31T07:51:20.309Z,8.65
2022-12-31T07:53:46.699Z,6.28
2022-12-31T07:56:13.562Z,9.35
2022-12-31T07:58:39.859Z,8.27
2022-12-31T08:01:12.461Z,6.50
2022-12-31T08:04:17.192Z,5.30
2022-12-31T08:06:58.199Z,6.47
2022-12-31T08:09:44.734Z,6.00
2022-12-31T08:12:11.211Z,6.70
2022-12-31T08:14:44.447Z,6.20
2022-12-31T08:17:16.796Z,6.82
2022-12-31T08:19:43.806Z,8.05
2022-12-31T08:22:48.598Z,7.15
2022-12-31T08:25:25.948Z,5.38
2022-12-31T08:28:03.036Z,6.15
2022-12-31T08:30:52.357Z,6.03
2022-12-31T08:33:24.767Z,6.63
2022-12-31T08:36:08.657Z,6.65
2022-12-31T08:38:56.248Z,6.13
2022-12-31T08:41:42.271Z,6.93
2022-12-31T08:44:22.999Z,8.45
2022-12-31T08:47:23.524Z,9.73
2022-12-31T08:49:50.100Z,5.60
2022-12-31T08:52:23.187Z,6.85
2022-12-31T08:54:49.752Z,6.32
2022-12-31T08:58:00.620Z,9.63
2022-12-31T09:00:27.997Z,8.32
2022-12-31T09:03:03.092Z,6.80
2022-12-31T09:05:32.705Z,7.20
2022-12-31T09:08:14.103Z,6.38
2022-12-31T09:11:10.838Z,10.45
2022-12-31T09:13:58.410Z,10.02
2022-12-31T09:17:02.148Z,11.45
2022-12-31T09:19:28.479Z,14.50
2022-12-31T09:21:55.180Z,15.95
2022-12-31T09:24:21.866Z,15.57
2022-12-31T09:27:03.269Z,18.85
2022-12-31T09:29:53.374Z,18.25
2022-12-31T09:32:29.430Z,18.45
2022-12-31T09:35:20.269Z,21.25
2022-12-31T09:37:54.558Z,18.15
2022-12-31T09:40:46.356Z,19.23
2022-12-31T09:43:31.570Z,21.50
2022-12-31T09:46:29.895Z,14.98
2022-12-31T09:49:08.945Z,18.17
2022-12-31T09:51:50.962Z,16.38
2022-12-31T09:54:50.173Z,15.65
2022-12-31T09:57:50.338Z,14.48
2022-12-31T10:00:33.226Z,15.95
2022-12-31T10:03:36.781Z,19.75
2022-12-31T10:06:24.546Z,14.85
2022-12-31T10:09:04.961Z,16.85
2022-12-31T10:11:31.266Z,19.02
2022-12-31T10:13:57.539Z,17.40
2022-12-31T10:16:32.979Z,20.60
2022-12-31T10:19:26.875Z,19.67
2022-12-31T10:22:08.172Z,24.20
2022-12-31T10:24:37.453Z,16.15
2022-12-31T10:27:12.789Z,19.30
2022-12-31T10:30:13.184Z,17.00
2022-12-31T10:33:15.114Z,16.05
2022-12-31T10:35:54.344Z,18.58
2022-12-31T10:38:42.240Z,24.55
2022-12-31T10:41:11.492Z,21.10
2022-12-31T10:44:08.118Z,20.00
2022-12-31T10:46:43.467Z,28.08
2022-12-31T10:49:28.646Z,26.45
2022-12-31T10:52:15.777Z,24.83
2022-12-31T10:55:15.672Z,37.47
2022-12-31T10:58:06.393Z,30.63
2022-12-31T11:01:05.402Z,26.98
2022-12-31T11:03:56.475Z,38.88
2022-12-31T11:06:28.750Z,33.20
2022-12-31T11:09:13.491Z,30.58
2022-12-31T11:11:56.873Z,32.22
2022-12-31T11:14:42.518Z,29.65
2022-12-31T11:17:30.076Z,29.00
2022-12-31T11:20:27.032Z,27.33
2022-12-31T11:23:15.184Z,25.67
2022-12-31T11:26:07.567Z,27.88
2022-12-31T11:28:47.149Z,23.50
2022-12-31T11:31:22.521Z,24.65
2022-12-31T11:34:06.930Z,24.42
2022-12-31T11:36:53.219Z,23.73
2022-12-31T11:39:49.020Z,19.85
2022-12-31T11:42:37.017Z,24.50
2022-12-31T11:45:27.671Z,26.67
2022-12-31T11:48:32.667Z,28.58
2022-12-31T11:51:18.002Z,24.50
2022-12-31T11:54:02.397Z,25.92
2022-12-31T11:56:37.204Z,24.35
2022-12-31T11:59:14.343Z,22.90
2022-12-31T12:02:00.373Z,15.55
2022-12-31T12:04:27.302Z,18.83
2022-12-31T12:06:53.757Z,22.33
2022-12-31T12:09:30.063Z,35.38
2022-12-31T12:12:02.810Z,33.08
2022-12-31T12:14:42.437Z,30.35
2022-12-31T12:17:14.457Z,206.50
2022-12-31T12:19:47.204Z,33.13
2022-12-31T12:22:21.583Z,32.60
2022-12-31T12:25:01.603Z,30.95
2022-12-31T12:27:30.075Z,46.75
2022-12-31T12:29:56.450Z,36.58
2022-12-31T12:32:25.646Z,31.30
2022-12-31T12:34:52.859Z,27.55
2022-12-31T12:37:25.216Z,26.08
2022-12-31T12:40:04.167Z,26.48
2022-12-31T12:42:30.622Z,28.65
2022-12-31T12:45:21.411Z,29.52
2022-12-31T12:47:54.357Z,28.45
2022-12-31T12:50:24.503Z,24.90
2022-12-31T12:53:02.186Z,21.80
2022-12-31T12:55:41.682Z,26.25
2022-12-31T12:58:19.621Z,36.22
2022-12-31T13:01:09.285Z,31.52
2022-12-31T13:04:32.419Z,29.92
2022-12-31T13:06:58.798Z,27.48
2022-12-31T13:09:48.252Z,29.15
2022-12-31T13:13:13.734Z,29.33
2022-12-31T13:15:40.806Z,26.77
2022-12-31T13:18:31.758Z,27.55
2022-12-31T13:21:07.109Z,33.28
2022-12-31T13:23:49.934Z,32.85
2022-12-31T13:26:34.367Z,27.67
2022-12-31T13:29:02.282Z,34.55
2022-12-31T13:31:39.124Z,28.27
2022-12-31T13:34:21.893Z,28.90
2022-12-31T13:36:51.577Z,34.58
2022-12-31T13:39:24.751Z,35.17
2022-12-31T13:42:03.474Z,24.67
2022-12-31T13:44:49.461Z,29.10
2022-12-31T13:47:43.934Z,24.45
2022-12-31T13:50:19.481Z,26.98
2022-12-31T13:53:22.646Z,35.20
2022-12-31T13:55:57.014Z,30.75
2022-12-31T13:58:48.744Z,35.22
2022-12-31T14:01:18.246Z,33.20
2022-12-31T14:03:59.261Z,26.90
2022-12-31T14:06:44.295Z,30.58
2022-12-31T14:09:17.777Z,25.35
2022-12-31T14:12:01.287Z,32.65
2022-12-31T14:14:47.881Z,34.42
2022-12-31T14:17:23.083Z,36.78
2022-12-31T14:20:20.712Z,30.98
2022-12-31T14:23:07.396Z,32.88
2022-12-31T14:25:39.577Z,34.75
2022-12-31T14:28:15.324Z,32.75
2022-12-31T14:30:43.198Z,30.27
2022-12-31T14:33:33.038Z,36.08
2022-12-31T14:36:20.687Z,37.15
2022-12-31T14:39:05.764Z,28.45
2022-12-31T14:41:37.848Z,37.58
2022-12-31T14:44:40.708Z,36.80
2022-12-31T14:47:12.767Z,33.40
2022-12-31T14:49:46.833Z,30.15
2022-12-31T14:52:15.908Z,23.27
2022-12-31T14:54:42.660Z,31.30
2022-12-31T14:58:16.807Z,30.80
2022-12-31T15:00:38.007Z,25.60
2022-12-31T15:03:05.872Z,23.40
2022-12-31T15:05:37.473Z,24.75
2022-12-31T15:08:13.160Z,62.95
2022-12-31T15:11:05.858Z,31.42
2022-12-31T15:13:50.636Z,28.13
2022-12-31T15:16:32.151Z,36.08
2022-12-31T15:19:45.810Z,31.88
2022-12-31T15:22:24.013Z,35.08
2022-12-31T15:24:50.464Z,40.45
2022-12-31T15:27:37.999Z,47.33
2022-12-31T15:30:06.115Z,41.25
2022-12-31T15:32:43.111Z,84.03
2022-12-31T15:35:21.638Z,66.30
2022-12-31T15:38:12.960Z,41.90
2022-12-31T15:40:47.730Z,42.22
2022-12-31T15:43:16.918Z,44.25
2022-12-31T15:45:43.746Z,43.08
2022-12-31T15:48:17.955Z,34.83
2022-12-31T15:50:46.046Z,48.55
2022-12-31T15:53:26.225Z,38.97
2022-12-31T15:55:54.527Z,50.17
2022-12-31T15:58:25.693Z,38.38
2022-12-31T16:00:51.994Z,36.80
2022-12-31T16:03:24.216Z,46.22
2022-12-31T16:05:58.483Z,44.75
2022-12-31T16:08:29.766Z,51.38
2022-12-31T16:10:56.110Z,45.08
2022-12-31T16:13:24.568Z,49.13
2022-12-31T16:15:57.558Z,54.63
2022-12-31T16:18:23.854Z,50.60
2022-12-31T16:20:50.271Z,49.35
2022-12-31T16:23:23.642Z,34.72
2022-12-31T16:25:52.840Z,29.05
2022-12-31T16:28:23.339Z,35.15
2022-12-31T16:31:03.894Z,41.75
2022-12-31T16:33:31.412Z,38.63
2022-12-31T16:36:00.756Z,27.98
2022-12-31T16:38:32.661Z,23.33
2022-12-31T16:41:07.185Z,27.15
2022-12-31T16:43:38.799Z,27.13
2022-12-31T16:46:17.480Z,39.60
2022-12-31T16:48:54.045Z,26.63
2022-12-31T16:51:24.370Z,25.00
2022-12-31T16:53:51.969Z,30.15
2022-12-31T16:56:32.523Z,21.48
2022-12-31T16:59:04.545Z,27.08
2022-12-31T17:01:34.113Z,23.38
2022-12-31T17:04:06.214Z,39.75
2022-12-31T17:06:32.678Z,30.20
2022-12-31T17:09:12.643Z,26.90
2022-12-31T17:11:49.497Z,29.75
2022-12-31T17:14:18.827Z,21.10
2022-12-31T17:17:02.865Z,37.05
2022-12-31T17:19:44.013Z,29.90
2022-12-31T17:22:29.818Z,23.33
2022-12-31T17:25:03.878Z,20.17
2022-12-31T17:27:30.931Z,26.20
2022-12-31T17:30:20.531Z,21.13
2022-12-31T17:32:47.440Z,19.10
2022-12-31T17:35:29.276Z,17.10
2022-12-31T17:38:27.437Z,21.92
2022-12-31T17:41:01.283Z,19.85
2022-12-31T17:43:34.737Z,19.15
2022-12-31T17:46:02.965Z,21.10
2022-12-31T17:48:29.523Z,21.17
2022-12-31T17:50:59.007Z,19.15
2022-12-31T17:53:25.957Z,24.13
2022-12-31T17:55:55.613Z,11.40
2022-12-31T17:59:03.596Z,18.13
2022-12-31T18:01:30.015Z,17.58
2022-12-31T18:03:56.440Z,15.75
2022-12-31T18:06:22.833Z,19.50
2022-12-31T18:08:49.199Z,20.67
2022-12-31T18:11:20.952Z,18.60
2022-12-31T18:13:48.795Z,15.32
2022-12-31T18:16:15.582Z,17.45
2022-12-31T18:18:42.183Z,15.65
2022-12-31T18:21:26.891Z,17.13
2022-12-31T18:26:21.681Z,18.27
2022-12-31T18:28:48.961Z,19.83
2022-12-31T18:31:26.339Z,18.17
2022-12-31T18:33:55.231Z,14.10
2022-12-31T18:36:23.203Z,17.52
2022-12-31T18:38:50.357Z,11.98
2022-12-31T18:41:25.330Z,24.15
2022-12-31T18:43:51.730Z,14.50
2022-12-31T18:46:21.215Z,14.32
2022-12-31T18:48:47.999Z,15.43
2022-12-31T18:51:14.323Z,15.30
2022-12-31T18:53:40.737Z,18.10
2022-12-31T18:56:11.374Z,15.52
2022-12-31T18:58:37.744Z,14.13
2022-12-31T19:01:04.489Z,11.88
2022-12-31T19:03:31.246Z,14.75
2022-12-31T19:05:57.688Z,16.30
2022-12-31T19:08:24.165Z,15.38
2022-12-31T19:10:52.203Z,19.75
2022-12-31T19:13:19.895Z,13.80
2022-12-31T19:15:53.887Z,16.63
2022-12-31T19:18:20.244Z,15.88
2022-12-31T19:20:47.085Z,14.05
2022-12-31T19:23:15.310Z,11.85
2022-12-31T19:25:42.585Z,15.70
2022-12-31T19:28:24.666Z,16.42
2022-12-31T19:30:51.788Z,18.33
2022-12-31T19:33:18.679Z,15.43
2022-12-31T19:35:45.863Z,17.63
2022-12-31T19:38:24.199Z,31.63
2022-12-31T19:40:52.149Z,17.77
2022-12-31T19:43:20.535Z,17.48
2022-12-31T19:45:47.426Z,20.38
2022-12-31T19:48:17.949Z,15.60
2022-12-31T19:50:48.276Z,16.95
2022-12-31T19:53:18.167Z,18.23
2022-12-31T19:55:44.551Z,12.98
2022-12-31T19:58:20.359Z,18.48
2022-12-31T20:00:55.705Z,18.35
2022-12-31T20:03:25.866Z,15.10
2022-12-31T20:06:05.290Z,15.75
2022-12-31T20:08:31.758Z,14.18
2022-12-31T20:10:58.152Z,18.27
2022-12-31T20:13:26.349Z,17.58
2022-12-31T20:15:53.991Z,19.27
2022-12-31T20:18:20.405Z,19.75
2022-12-31T20:20:53.457Z,25.13
2022-12-31T20:23:21.879Z,14.60
2022-12-31T20:25:58.538Z,16.30
2022-12-31T20:28:25.097Z,17.08
2022-12-31T20:30:51.768Z,17.40
2022-12-31T20:33:19.342Z,11.70
2022-12-31T20:35:45.805Z,17.65
2022-12-31T20:38:12.304Z,16.85
2022-12-31T20:40:44.566Z,16.58
2022-12-31T20:43:13.055Z,19.23
2022-12-31T20:45:40.599Z,22.65
2022-12-31T20:48:07.024Z,19.38
2022-12-31T20:50:33.415Z,20.30
2022-12-31T20:52:59.755Z,20.67
2022-12-31T20:55:26.126Z,23.27
2022-12-31T20:57:52.924Z,16.65
2022-12-31T21:00:19.566Z,17.15
2022-12-31T21:02:53.822Z,16.65
2022-12-31T21:05:22.990Z,17.00
2022-12-31T21:07:49.434Z,31.27
2022-12-31T21:10:15.918Z,24.23
2022-12-31T21:12:42.420Z,21.45
2022-12-31T21:15:09.866Z,24.63
2022-12-31T21:17:36.321Z,20.70
2022-12-31T21:20:02.723Z,22.98
2022-12-31T21:22:29.012Z,18.83
2022-12-31T21:24:55.607Z,17.35
2022-12-31T21:27:21.936Z,17.30
2022-12-31T21:30:17.104Z,16.65
2022-12-31T21:32:34.707Z,33.35
2022-12-31T21:35:40.279Z,25.35
2022-12-31T21:37:58.275Z,19.42
2022-12-31T21:40:26.637Z,21.95
2022-12-31T21:42:52.940Z,20.52
2022-12-31T21:45:19.276Z,21.90
2022-12-31T21:47:47.580Z,18.65
2022-12-31T21:50:14.321Z,18.10
2022-12-31T21:52:40.777Z,22.75
2022-12-31T21:55:07.574Z,16.50
2022-12-31T21:57:51.964Z,19.40
2022-12-31T22:00:44.281Z,14.82
2022-12-31T22:03:11.556Z,17.63
2022-12-31T22:05:38.717Z,23.27
2022-12-31T22:08:05.271Z,19.05
2022-12-31T22:10:37.213Z,16.05
2022-12-31T22:13:03.932Z,16.77
2022-12-31T22:15:30.334Z,27.10
2022-12-31T22:17:56.756Z,22.27
2022-12-31T22:20:27.839Z,16.33
2022-12-31T22:22:54.455Z,14.90
2022-12-31T22:25:21.251Z,23.20
2022-12-31T22:28:04.422Z,22.05
2022-12-31T22:30:34.554Z,17.77
2022-12-31T22:33:00.913Z,17.70
2022-12-31T22:35:27.367Z,20.85
2022-12-31T22:37:59.133Z,18.55
2022-12-31T22:40:27.987Z,19.00
2022-12-31T22:42:55.233Z,16.40
2022-12-31T22:45:21.656Z,17.80
2022-12-31T22:47:48.036Z,16.08
2022-12-31T22:50:14.550Z,14.73
2022-12-31T22:52:41.036Z,21.33
2022-12-31T22:55:08.229Z,14.23
2022-12-31T22:57:34.648Z,18.60
2022-12-31T23:00:00.922Z,20.13
2022-12-31T23:02:35.941Z,53.53
2022-12-31T23:05:16.238Z,76.43
2022-12-31T23:07:44.041Z,77.38
2022-12-31T23:10:12.359Z,63.65
2022-12-31T23:12:38.705Z,64.72
2022-12-31T23:15:05.569Z,88.07
2022-12-31T23:17:32.288Z,157.98
2022-12-31T23:19:59.856Z,140.57
2022-12-31T23:22:26.179Z,96.38
2022-12-31T23:24:52.520Z,80.70
2022-12-31T23:27:19.029Z,74.18
2022-12-31T23:29:47.406Z,93.10
2022-12-31T23:32:18.042Z,70.63
2022-12-31T23:34:45.768Z,71.32
2022-12-31T23:37:13.559Z,65.38
2022-12-31T23:39:40.159Z,60.83
2022-12-31T23:42:06.602Z,63.90
2022-12-31T23:44:33.114Z,70.15
2022-12-31T23:46:59.971Z,62.10
2022-12-31T23:49:26.353Z,57.25
2022-12-31T23:51:52.805Z,46.90
2022-12-31T23:54:19.279Z,45.88
2022-12-31T23:56:45.720Z,43.97
2022-12-31T23:59:12.695Z,44.13
